sensor_id;sensor_type;location;lat;lon;timestamp;pressure;altitude;pressure_sealevel;temperature;humidity
64238;BME280;57192;41.976;2.828;2022-07-05T00:00:55;100903.69;;;24.20;51.75
64238;BME280;57192;41.976;2.828;2022-07-05T00:03:21;100893.56;;;24.13;51.80
64238;BME280;57192;41.976;2.828;2022-07-05T00:05:47;100900.97;;;24.11;51.64
64238;BME280;57192;41.976;2.828;2022-07-05T00:08:12;100901.84;;;24.01;52.20
64238;BME280;57192;41.976;2.828;2022-07-05T00:10:41;100908.41;;;23.99;52.43
64238;BME280;57192;41.976;2.828;2022-07-05T00:13:07;100912.41;;;23.95;52.22
64238;BME280;57192;41.976;2.828;2022-07-05T00:15:39;100911.84;;;23.91;52.45
64238;BME280;57192;41.976;2.828;2022-07-05T00:18:05;100902.72;;;23.82;52.67
64238;BME280;57192;41.976;2.828;2022-07-05T00:20:31;100905.41;;;23.73;52.86
64238;BME280;57192;41.976;2.828;2022-07-05T00:22:56;100905.84;;;23.68;52.84
64238;BME280;57192;41.976;2.828;2022-07-05T00:25:22;100910.72;;;23.74;52.58
64238;BME280;57192;41.976;2.828;2022-07-05T00:27:48;100900.13;;;23.71;52.72
64238;BME280;57192;41.976;2.828;2022-07-05T00:30:14;100906.09;;;23.65;52.97
64238;BME280;57192;41.976;2.828;2022-07-05T00:32:40;100912.09;;;23.59;53.25
64238;BME280;57192;41.976;2.828;2022-07-05T00:35:09;100903.50;;;23.54;53.35
64238;BME280;57192;41.976;2.828;2022-07-05T00:37:34;100899.66;;;23.47;53.58
64238;BME280;57192;41.976;2.828;2022-07-05T00:40:01;100897.34;;;23.42;53.71
64238;BME280;57192;41.976;2.828;2022-07-05T00:42:26;100903.19;;;23.38;53.78
64238;BME280;57192;41.976;2.828;2022-07-05T00:44:53;100907.63;;;23.39;53.66
64238;BME280;57192;41.976;2.828;2022-07-05T00:47:18;100902.75;;;23.32;54.37
64238;BME280;57192;41.976;2.828;2022-07-05T00:49:44;100900.06;;;23.32;53.87
64238;BME280;57192;41.976;2.828;2022-07-05T00:52:11;100906.03;;;23.26;54.12
64238;BME280;57192;41.976;2.828;2022-07-05T00:54:38;100902.31;;;23.27;54.05
64238;BME280;57192;41.976;2.828;2022-07-05T00:57:05;100905.91;;;23.28;54.13
64238;BME280;57192;41.976;2.828;2022-07-05T00:59:31;100899.47;;;23.29;54.18
64238;BME280;57192;41.976;2.828;2022-07-05T01:01:57;100899.59;;;23.27;54.21
64238;BME280;57192;41.976;2.828;2022-07-05T01:04:23;100901.16;;;23.20;54.52
64238;BME280;57192;41.976;2.828;2022-07-05T01:06:51;100902.03;;;23.21;54.17
64238;BME280;57192;41.976;2.828;2022-07-05T01:09:20;100901.97;;;23.11;54.64
64238;BME280;57192;41.976;2.828;2022-07-05T01:11:50;100902.72;;;23.13;54.38
64238;BME280;57192;41.976;2.828;2022-07-05T01:14:21;100905.97;;;23.07;54.69
64238;BME280;57192;41.976;2.828;2022-07-05T01:16:49;100897.25;;;23.03;55.11
64238;BME280;57192;41.976;2.828;2022-07-05T01:19:15;100899.09;;;23.03;54.87
64238;BME280;57192;41.976;2.828;2022-07-05T01:21:44;100900.53;;;23.07;54.61
64238;BME280;57192;41.976;2.828;2022-07-05T01:24:15;100900.81;;;23.04;54.79
64238;BME280;57192;41.976;2.828;2022-07-05T01:26:42;100898.09;;;23.04;54.44
64238;BME280;57192;41.976;2.828;2022-07-05T01:29:08;100905.25;;;23.05;54.49
64238;BME280;57192;41.976;2.828;2022-07-05T01:31:37;100904.78;;;23.00;54.70
64238;BME280;57192;41.976;2.828;2022-07-05T01:34:04;100898.66;;;22.98;54.74
64238;BME280;57192;41.976;2.828;2022-07-05T01:36:33;100904.09;;;22.98;54.73
64238;BME280;57192;41.976;2.828;2022-07-05T01:39:01;100903.09;;;22.99;54.59
64238;BME280;57192;41.976;2.828;2022-07-05T01:41:27;100903.34;;;22.96;55.06
64238;BME280;57192;41.976;2.828;2022-07-05T01:43:53;100908.56;;;22.87;55.06
64238;BME280;57192;41.976;2.828;2022-07-05T01:46:21;100899.44;;;22.88;55.00
64238;BME280;57192;41.976;2.828;2022-07-05T01:48:49;100904.69;;;22.80;55.36
64238;BME280;57192;41.976;2.828;2022-07-05T01:51:25;100908.13;;;22.82;55.35
64238;BME280;57192;41.976;2.828;2022-07-05T01:53:55;100909.66;;;22.75;55.38
64238;BME280;57192;41.976;2.828;2022-07-05T01:56:20;100915.63;;;22.69;55.57
64238;BME280;57192;41.976;2.828;2022-07-05T01:58:46;100903.59;;;22.62;55.83
64238;BME280;57192;41.976;2.828;2022-07-05T02:01:12;100911.72;;;22.62;56.06
64238;BME280;57192;41.976;2.828;2022-07-05T02:03:39;100911.03;;;22.60;56.00
64238;BME280;57192;41.976;2.828;2022-07-05T02:06:11;100911.28;;;22.57;56.22
64238;BME280;57192;41.976;2.828;2022-07-05T02:08:37;100916.44;;;22.60;55.83
64238;BME280;57192;41.976;2.828;2022-07-05T02:11:05;100912.88;;;22.59;55.90
64238;BME280;57192;41.976;2.828;2022-07-05T02:13:31;100918.88;;;22.63;55.76
64238;BME280;57192;41.976;2.828;2022-07-05T02:15:56;100916.56;;;22.58;55.86
64238;BME280;57192;41.976;2.828;2022-07-05T02:18:25;100914.00;;;22.57;55.93
64238;BME280;57192;41.976;2.828;2022-07-05T02:20:59;100915.69;;;22.58;56.04
64238;BME280;57192;41.976;2.828;2022-07-05T02:25:50;100906.09;;;22.44;56.59
64238;BME280;57192;41.976;2.828;2022-07-05T02:28:17;100913.63;;;22.41;56.60
64238;BME280;57192;41.976;2.828;2022-07-05T02:30:42;100900.00;;;22.31;56.93
64238;BME280;57192;41.976;2.828;2022-07-05T02:33:08;100903.56;;;22.31;56.82
64238;BME280;57192;41.976;2.828;2022-07-05T02:35:34;100905.81;;;22.26;57.23
64238;BME280;57192;41.976;2.828;2022-07-05T02:37:59;100912.09;;;22.27;56.95
64238;BME280;57192;41.976;2.828;2022-07-05T02:40:25;100909.13;;;22.30;56.59
64238;BME280;57192;41.976;2.828;2022-07-05T02:42:50;100912.44;;;22.33;56.62
64238;BME280;57192;41.976;2.828;2022-07-05T02:45:16;100919.81;;;22.31;56.57
64238;BME280;57192;41.976;2.828;2022-07-05T02:47:41;100921.06;;;22.27;57.02
64238;BME280;57192;41.976;2.828;2022-07-05T02:50:09;100916.91;;;22.23;57.27
64238;BME280;57192;41.976;2.828;2022-07-05T02:52:35;100920.88;;;22.19;57.47
64238;BME280;57192;41.976;2.828;2022-07-05T02:55:08;100922.88;;;22.17;57.52
64238;BME280;57192;41.976;2.828;2022-07-05T02:57:36;100917.94;;;22.11;57.67
64238;BME280;57192;41.976;2.828;2022-07-05T03:00:03;100921.13;;;22.16;57.32
64238;BME280;57192;41.976;2.828;2022-07-05T03:02:29;100923.31;;;22.22;56.91
64238;BME280;57192;41.976;2.828;2022-07-05T03:04:56;100923.19;;;22.24;56.79
64238;BME280;57192;41.976;2.828;2022-07-05T03:07:24;100929.25;;;22.16;57.63
64238;BME280;57192;41.976;2.828;2022-07-05T03:09:50;100941.44;;;22.10;57.76
64238;BME280;57192;41.976;2.828;2022-07-05T03:12:16;100938.84;;;22.09;57.56
64238;BME280;57192;41.976;2.828;2022-07-05T03:14:41;100943.16;;;22.11;57.30
64238;BME280;57192;41.976;2.828;2022-07-05T03:17:07;100938.66;;;22.01;57.78
64238;BME280;57192;41.976;2.828;2022-07-05T03:19:32;100948.22;;;22.05;57.59
64238;BME280;57192;41.976;2.828;2022-07-05T03:21:58;100943.00;;;22.13;57.60
64238;BME280;57192;41.976;2.828;2022-07-05T03:24:23;100957.66;;;22.22;57.48
64238;BME280;57192;41.976;2.828;2022-07-05T03:26:55;100964.78;;;22.23;57.69
64238;BME280;57192;41.976;2.828;2022-07-05T03:29:20;100973.06;;;22.21;57.73
64238;BME280;57192;41.976;2.828;2022-07-05T03:31:46;100970.09;;;22.13;57.74
64238;BME280;57192;41.976;2.828;2022-07-05T03:34:12;100976.03;;;22.07;58.05
64238;BME280;57192;41.976;2.828;2022-07-05T03:36:37;100976.78;;;21.98;58.24
64238;BME280;57192;41.976;2.828;2022-07-05T03:39:03;100974.47;;;21.93;58.13
64238;BME280;57192;41.976;2.828;2022-07-05T03:41:29;100971.00;;;22.02;58.23
64238;BME280;57192;41.976;2.828;2022-07-05T03:43:54;100976.28;;;22.04;58.30
64238;BME280;57192;41.976;2.828;2022-07-05T03:46:23;100971.00;;;22.02;58.21
64238;BME280;57192;41.976;2.828;2022-07-05T03:48:48;100969.06;;;21.93;58.40
64238;BME280;57192;41.976;2.828;2022-07-05T03:51:14;100969.84;;;21.84;58.63
64238;BME280;57192;41.976;2.828;2022-07-05T03:53:39;100968.25;;;21.81;58.51
64238;BME280;57192;41.976;2.828;2022-07-05T03:56:27;100965.53;;;21.81;58.59
64238;BME280;57192;41.976;2.828;2022-07-05T03:58:55;100973.88;;;21.89;58.14
64238;BME280;57192;41.976;2.828;2022-07-05T04:01:21;100974.88;;;21.88;58.40
64238;BME280;57192;41.976;2.828;2022-07-05T04:03:47;100969.09;;;21.82;58.92
64238;BME280;57192;41.976;2.828;2022-07-05T04:06:13;100976.34;;;21.81;58.69
64238;BME280;57192;41.976;2.828;2022-07-05T04:08:39;100982.78;;;21.80;58.43
64238;BME280;57192;41.976;2.828;2022-07-05T04:11:07;100979.94;;;21.71;59.14
64238;BME280;57192;41.976;2.828;2022-07-05T04:13:34;100971.97;;;21.69;59.17
64238;BME280;57192;41.976;2.828;2022-07-05T04:16:00;100972.22;;;21.66;59.10
64238;BME280;57192;41.976;2.828;2022-07-05T04:18:26;100973.31;;;21.63;59.11
64238;BME280;57192;41.976;2.828;2022-07-05T04:20:51;100982.31;;;21.75;59.15
64238;BME280;57192;41.976;2.828;2022-07-05T04:23:17;100981.91;;;21.80;58.97
64238;BME280;57192;41.976;2.828;2022-07-05T04:25:42;100983.47;;;21.82;58.94
64238;BME280;57192;41.976;2.828;2022-07-05T04:28:11;100984.22;;;21.84;58.92
64238;BME280;57192;41.976;2.828;2022-07-05T04:30:36;100995.66;;;21.88;58.79
64238;BME280;57192;41.976;2.828;2022-07-05T04:33:02;100998.63;;;21.85;58.86
64238;BME280;57192;41.976;2.828;2022-07-05T04:35:27;100997.50;;;21.87;58.71
64238;BME280;57192;41.976;2.828;2022-07-05T04:37:53;101006.34;;;21.89;58.69
64238;BME280;57192;41.976;2.828;2022-07-05T04:40:18;101006.00;;;21.94;58.59
64238;BME280;57192;41.976;2.828;2022-07-05T04:42:47;101007.56;;;21.97;58.45
64238;BME280;57192;41.976;2.828;2022-07-05T04:45:12;101002.03;;;21.98;58.36
64238;BME280;57192;41.976;2.828;2022-07-05T04:47:38;101015.03;;;22.04;58.26
64238;BME280;57192;41.976;2.828;2022-07-05T04:50:08;101012.53;;;22.12;57.90
64238;BME280;57192;41.976;2.828;2022-07-05T04:52:36;101016.88;;;22.15;58.01
64238;BME280;57192;41.976;2.828;2022-07-05T04:55:02;101014.63;;;22.20;57.66
64238;BME280;57192;41.976;2.828;2022-07-05T04:57:27;101013.53;;;22.23;57.75
64238;BME280;57192;41.976;2.828;2022-07-05T05:00:01;101020.25;;;22.28;57.47
64238;BME280;57192;41.976;2.828;2022-07-05T05:02:26;101022.97;;;22.28;57.44
64238;BME280;57192;41.976;2.828;2022-07-05T05:04:52;101018.56;;;22.27;57.36
64238;BME280;57192;41.976;2.828;2022-07-05T05:07:17;101018.16;;;22.32;57.30
64238;BME280;57192;41.976;2.828;2022-07-05T05:09:43;101024.41;;;22.44;56.99
64238;BME280;57192;41.976;2.828;2022-07-05T05:12:09;101018.41;;;22.61;56.51
64238;BME280;57192;41.976;2.828;2022-07-05T05:14:34;101019.19;;;22.73;56.30
64238;BME280;57192;41.976;2.828;2022-07-05T05:17:00;101017.25;;;22.84;55.91
64238;BME280;57192;41.976;2.828;2022-07-05T05:19:25;101025.22;;;22.97;55.56
64238;BME280;57192;41.976;2.828;2022-07-05T05:21:51;101027.56;;;23.11;55.12
64238;BME280;57192;41.976;2.828;2022-07-05T05:24:16;101029.94;;;23.26;54.81
64238;BME280;57192;41.976;2.828;2022-07-05T05:26:42;101026.72;;;23.42;54.33
64238;BME280;57192;41.976;2.828;2022-07-05T05:29:07;101022.88;;;23.54;54.36
64238;BME280;57192;41.976;2.828;2022-07-05T05:31:33;101016.41;;;23.66;54.07
64238;BME280;57192;41.976;2.828;2022-07-05T05:33:58;101015.44;;;23.87;53.13
64238;BME280;57192;41.976;2.828;2022-07-05T05:36:24;101017.47;;;24.04;53.01
64238;BME280;57192;41.976;2.828;2022-07-05T05:38:50;101022.19;;;24.21;51.91
64238;BME280;57192;41.976;2.828;2022-07-05T05:41:15;101023.47;;;24.37;51.49
64238;BME280;57192;41.976;2.828;2022-07-05T05:43:41;101024.22;;;24.48;51.36
64238;BME280;57192;41.976;2.828;2022-07-05T05:46:09;101024.19;;;24.68;51.09
64238;BME280;57192;41.976;2.828;2022-07-05T05:48:34;101022.72;;;24.93;50.34
64238;BME280;57192;41.976;2.828;2022-07-05T05:51:00;101036.22;;;25.32;49.18
64238;BME280;57192;41.976;2.828;2022-07-05T05:53:26;101043.16;;;26.44;46.83
64238;BME280;57192;41.976;2.828;2022-07-05T05:55:57;101040.56;;;28.15;42.34
64238;BME280;57192;41.976;2.828;2022-07-05T05:58:24;101048.50;;;29.56;39.62
64238;BME280;57192;41.976;2.828;2022-07-05T06:00:49;101044.25;;;30.70;36.57
64238;BME280;57192;41.976;2.828;2022-07-05T06:03:19;101044.31;;;32.03;34.34
64238;BME280;57192;41.976;2.828;2022-07-05T06:05:45;101057.22;;;33.10;31.88
64238;BME280;57192;41.976;2.828;2022-07-05T06:08:11;101062.16;;;34.65;29.59
64238;BME280;57192;41.976;2.828;2022-07-05T06:10:37;101063.38;;;36.07;27.52
64238;BME280;57192;41.976;2.828;2022-07-05T06:13:06;101067.22;;;37.19;25.73
64238;BME280;57192;41.976;2.828;2022-07-05T06:15:32;101066.13;;;37.64;25.34
64238;BME280;57192;41.976;2.828;2022-07-05T06:17:58;101070.84;;;36.70;26.11
64238;BME280;57192;41.976;2.828;2022-07-05T06:20:29;101073.09;;;36.54;26.24
64238;BME280;57192;41.976;2.828;2022-07-05T06:22:55;101073.97;;;36.80;25.86
64238;BME280;57192;41.976;2.828;2022-07-05T06:25:24;101080.22;;;37.44;24.67
64238;BME280;57192;41.976;2.828;2022-07-05T06:27:59;101073.75;;;38.35;23.67
64238;BME280;57192;41.976;2.828;2022-07-05T06:30:26;101073.16;;;39.34;22.53
64238;BME280;57192;41.976;2.828;2022-07-05T06:32:53;101063.78;;;39.87;21.52
64238;BME280;57192;41.976;2.828;2022-07-05T06:35:22;101069.56;;;40.26;21.36
64238;BME280;57192;41.976;2.828;2022-07-05T06:40:23;101069.06;;;42.12;18.90
64238;BME280;57192;41.976;2.828;2022-07-05T06:42:49;101069.34;;;42.97;18.16
64238;BME280;57192;41.976;2.828;2022-07-05T06:45:15;101060.22;;;43.65;17.57
64238;BME280;57192;41.976;2.828;2022-07-05T06:47:41;101050.38;;;44.45;16.10
64238;BME280;57192;41.976;2.828;2022-07-05T06:50:07;101049.75;;;45.35;15.70
64238;BME280;57192;41.976;2.828;2022-07-05T06:52:36;101043.47;;;46.13;14.99
64238;BME280;57192;41.976;2.828;2022-07-05T06:55:02;101046.91;;;47.13;13.77
64238;BME280;57192;41.976;2.828;2022-07-05T06:57:28;101037.50;;;47.90;12.88
64238;BME280;57192;41.976;2.828;2022-07-05T06:59:54;101037.31;;;48.56;12.68
64238;BME280;57192;41.976;2.828;2022-07-05T07:02:20;101045.09;;;49.39;12.06
64238;BME280;57192;41.976;2.828;2022-07-05T07:04:46;101035.56;;;50.12;10.98
64238;BME280;57192;41.976;2.828;2022-07-05T07:07:12;101040.88;;;50.28;11.61
64238;BME280;57192;41.976;2.828;2022-07-05T07:09:58;101037.19;;;50.27;10.90
64238;BME280;57192;41.976;2.828;2022-07-05T07:12:27;101033.75;;;50.30;10.96
64238;BME280;57192;41.976;2.828;2022-07-05T07:14:53;101038.34;;;51.02;11.00
64238;BME280;57192;41.976;2.828;2022-07-05T07:17:18;101028.31;;;51.27;10.62
64238;BME280;57192;41.976;2.828;2022-07-05T07:19:44;101022.25;;;51.86;10.50
64238;BME280;57192;41.976;2.828;2022-07-05T07:22:09;101028.28;;;51.76;10.47
64238;BME280;57192;41.976;2.828;2022-07-05T07:24:35;101033.94;;;52.54;9.98
64238;BME280;57192;41.976;2.828;2022-07-05T07:27:00;101037.34;;;52.85;9.58
64238;BME280;57192;41.976;2.828;2022-07-05T07:29:31;101040.31;;;53.06;9.28
64238;BME280;57192;41.976;2.828;2022-07-05T07:31:58;101051.06;;;53.30;8.78
64238;BME280;57192;41.976;2.828;2022-07-05T07:34:25;101041.19;;;52.98;9.37
64238;BME280;57192;41.976;2.828;2022-07-05T07:36:51;101039.13;;;53.07;9.14
64238;BME280;57192;41.976;2.828;2022-07-05T07:39:17;101034.94;;;53.73;8.46
64238;BME280;57192;41.976;2.828;2022-07-05T07:41:42;101039.63;;;53.98;8.30
64238;BME280;57192;41.976;2.828;2022-07-05T07:44:08;101037.16;;;54.30;7.96
64238;BME280;57192;41.976;2.828;2022-07-05T07:46:34;101035.41;;;54.59;8.45
64238;BME280;57192;41.976;2.828;2022-07-05T07:48:59;101043.50;;;54.81;7.99
64238;BME280;57192;41.976;2.828;2022-07-05T07:51:25;101034.03;;;54.89;8.12
64238;BME280;57192;41.976;2.828;2022-07-05T07:53:50;101039.22;;;54.75;7.61
64238;BME280;57192;41.976;2.828;2022-07-05T07:56:16;101026.84;;;54.59;7.90
64238;BME280;57192;41.976;2.828;2022-07-05T07:58:42;101022.53;;;54.52;8.17
64238;BME280;57192;41.976;2.828;2022-07-05T08:01:07;101007.66;;;54.68;8.04
64238;BME280;57192;41.976;2.828;2022-07-05T08:03:41;101008.13;;;54.03;8.26
64238;BME280;57192;41.976;2.828;2022-07-05T08:06:08;101000.56;;;54.08;8.17
64238;BME280;57192;41.976;2.828;2022-07-05T08:08:34;100993.00;;;54.12;8.17
64238;BME280;57192;41.976;2.828;2022-07-05T08:11:00;100999.72;;;54.61;7.84
64238;BME280;57192;41.976;2.828;2022-07-05T08:13:26;100994.66;;;55.28;8.05
64238;BME280;57192;41.976;2.828;2022-07-05T08:15:51;100981.44;;;56.01;7.71
64238;BME280;57192;41.976;2.828;2022-07-05T08:18:17;100974.28;;;56.07;7.17
64238;BME280;57192;41.976;2.828;2022-07-05T08:21:01;100971.72;;;56.17;7.12
64238;BME280;57192;41.976;2.828;2022-07-05T08:23:45;100982.03;;;54.80;8.12
64238;BME280;57192;41.976;2.828;2022-07-05T08:26:10;100979.47;;;53.16;8.98
64238;BME280;57192;41.976;2.828;2022-07-05T08:28:36;100974.22;;;50.89;10.58
64238;BME280;57192;41.976;2.828;2022-07-05T08:31:04;100959.03;;;48.95;11.91
64238;BME280;57192;41.976;2.828;2022-07-05T08:33:30;100955.91;;;47.42;13.32
64238;BME280;57192;41.976;2.828;2022-07-05T08:35:58;100949.16;;;47.61;12.74
64238;BME280;57192;41.976;2.828;2022-07-05T08:38:24;100948.31;;;47.99;12.84
64238;BME280;57192;41.976;2.828;2022-07-05T08:40:51;100941.53;;;48.19;12.62
64238;BME280;57192;41.976;2.828;2022-07-05T08:43:17;100932.34;;;47.94;13.04
64238;BME280;57192;41.976;2.828;2022-07-05T08:45:44;100929.09;;;47.25;13.52
64238;BME280;57192;41.976;2.828;2022-07-05T08:48:10;100929.22;;;46.04;14.35
64238;BME280;57192;41.976;2.828;2022-07-05T08:50:43;100917.25;;;44.58;15.48
64238;BME280;57192;41.976;2.828;2022-07-05T08:53:12;100909.63;;;43.51;16.71
64238;BME280;57192;41.976;2.828;2022-07-05T08:55:38;100916.19;;;42.25;18.11
64238;BME280;57192;41.976;2.828;2022-07-05T08:58:04;100917.59;;;41.24;19.15
64238;BME280;57192;41.976;2.828;2022-07-05T09:00:33;100918.09;;;40.43;19.74
64238;BME280;57192;41.976;2.828;2022-07-05T09:03:06;100917.34;;;39.57;20.79
64238;BME280;57192;41.976;2.828;2022-07-05T09:05:41;100924.56;;;39.41;20.81
64238;BME280;57192;41.976;2.828;2022-07-05T09:08:10;100919.84;;;38.78;22.02
64238;BME280;57192;41.976;2.828;2022-07-05T09:10:39;100915.00;;;38.38;22.02
64238;BME280;57192;41.976;2.828;2022-07-05T09:13:05;100911.44;;;37.77;22.83
64238;BME280;57192;41.976;2.828;2022-07-05T09:15:57;100920.50;;;37.06;23.54
64238;BME280;57192;41.976;2.828;2022-07-05T09:18:46;100924.78;;;36.83;23.84
64238;BME280;57192;41.976;2.828;2022-07-05T09:23:56;100915.63;;;37.01;23.53
64238;BME280;57192;41.976;2.828;2022-07-05T09:26:39;100911.63;;;36.97;23.74
64238;BME280;57192;41.976;2.828;2022-07-05T09:29:12;100909.38;;;36.69;24.31
64238;BME280;57192;41.976;2.828;2022-07-05T09:31:40;100910.19;;;36.51;24.25
64238;BME280;57192;41.976;2.828;2022-07-05T09:34:17;100905.34;;;36.47;24.39
64238;BME280;57192;41.976;2.828;2022-07-05T09:37:02;100895.84;;;36.61;23.90
64238;BME280;57192;41.976;2.828;2022-07-05T09:44:42;100898.00;;;36.34;24.63
64238;BME280;57192;41.976;2.828;2022-07-05T09:47:08;100894.59;;;36.32;24.57
64238;BME280;57192;41.976;2.828;2022-07-05T09:49:41;100902.09;;;36.00;24.92
64238;BME280;57192;41.976;2.828;2022-07-05T09:52:11;100902.91;;;36.07;24.66
64238;BME280;57192;41.976;2.828;2022-07-05T09:54:37;100901.53;;;36.16;24.84
64238;BME280;57192;41.976;2.828;2022-07-05T09:57:03;100897.97;;;36.09;25.02
64238;BME280;57192;41.976;2.828;2022-07-05T09:59:29;100900.47;;;36.17;24.92
64238;BME280;57192;41.976;2.828;2022-07-05T10:01:54;100895.97;;;35.59;25.06
64238;BME280;57192;41.976;2.828;2022-07-05T10:04:20;100899.22;;;35.81;24.79
64238;BME280;57192;41.976;2.828;2022-07-05T10:06:46;100900.47;;;35.85;25.10
64238;BME280;57192;41.976;2.828;2022-07-05T10:09:12;100895.81;;;35.79;25.04
64238;BME280;57192;41.976;2.828;2022-07-05T10:11:43;100896.38;;;35.95;25.13
64238;BME280;57192;41.976;2.828;2022-07-05T10:14:18;100908.91;;;35.97;24.96
64238;BME280;57192;41.976;2.828;2022-07-05T10:16:52;100894.78;;;35.80;24.80
64238;BME280;57192;41.976;2.828;2022-07-05T10:19:22;100890.34;;;35.73;25.29
64238;BME280;57192;41.976;2.828;2022-07-05T10:21:51;100889.84;;;35.82;25.32
64238;BME280;57192;41.976;2.828;2022-07-05T10:24:17;100889.69;;;35.77;25.50
64238;BME280;57192;41.976;2.828;2022-07-05T10:26:44;100897.13;;;35.77;25.35
64238;BME280;57192;41.976;2.828;2022-07-05T10:29:14;100878.84;;;35.76;25.34
64238;BME280;57192;41.976;2.828;2022-07-05T10:31:40;100887.69;;;35.91;25.08
64238;BME280;57192;41.976;2.828;2022-07-05T10:34:10;100885.75;;;35.92;25.19
64238;BME280;57192;41.976;2.828;2022-07-05T10:36:39;100886.63;;;35.85;25.27
64238;BME280;57192;41.976;2.828;2022-07-05T10:39:08;100889.44;;;35.79;25.07
64238;BME280;57192;41.976;2.828;2022-07-05T10:41:38;100882.25;;;35.71;25.08
64238;BME280;57192;41.976;2.828;2022-07-05T10:44:10;100880.75;;;35.75;24.82
64238;BME280;57192;41.976;2.828;2022-07-05T10:46:38;100878.13;;;35.49;25.20
64238;BME280;57192;41.976;2.828;2022-07-05T10:49:19;100875.47;;;35.29;25.36
64238;BME280;57192;41.976;2.828;2022-07-05T10:51:56;100893.16;;;35.21;26.16
64238;BME280;57192;41.976;2.828;2022-07-05T10:54:25;100885.13;;;35.13;25.90
64238;BME280;57192;41.976;2.828;2022-07-05T10:57:20;100888.97;;;35.05;26.49
64238;BME280;57192;41.976;2.828;2022-07-05T11:00:10;100886.19;;;34.99;26.19
64238;BME280;57192;41.976;2.828;2022-07-05T11:02:37;100879.81;;;34.98;26.27
64238;BME280;57192;41.976;2.828;2022-07-05T11:05:05;100869.88;;;34.84;26.68
64238;BME280;57192;41.976;2.828;2022-07-05T11:08:00;100868.59;;;34.86;26.74
64238;BME280;57192;41.976;2.828;2022-07-05T11:10:30;100871.13;;;34.95;26.42
64238;BME280;57192;41.976;2.828;2022-07-05T11:12:58;100882.16;;;34.95;26.36
64238;BME280;57192;41.976;2.828;2022-07-05T11:15:24;100877.31;;;34.90;26.80
64238;BME280;57192;41.976;2.828;2022-07-05T11:18:14;100867.28;;;35.09;26.55
64238;BME280;57192;41.976;2.828;2022-07-05T11:20:42;100860.69;;;35.10;26.33
64238;BME280;57192;41.976;2.828;2022-07-05T11:23:11;100859.16;;;35.21;25.92
64238;BME280;57192;41.976;2.828;2022-07-05T11:25:42;100856.78;;;35.24;26.55
64238;BME280;57192;41.976;2.828;2022-07-05T11:28:19;100870.56;;;35.37;25.86
64238;BME280;57192;41.976;2.828;2022-07-05T11:30:50;100867.97;;;35.49;25.76
64238;BME280;57192;41.976;2.828;2022-07-05T11:35:56;100852.63;;;35.47;25.63
64238;BME280;57192;41.976;2.828;2022-07-05T11:38:23;100854.31;;;35.48;25.81
64238;BME280;57192;41.976;2.828;2022-07-05T11:40:50;100858.72;;;35.62;25.95
64238;BME280;57192;41.976;2.828;2022-07-05T11:43:29;100863.41;;;35.61;25.73
64238;BME280;57192;41.976;2.828;2022-07-05T11:45:58;100860.69;;;35.55;25.80
64238;BME280;57192;41.976;2.828;2022-07-05T11:48:28;100849.31;;;35.31;26.13
64238;BME280;57192;41.976;2.828;2022-07-05T11:50:55;100850.56;;;35.35;25.88
64238;BME280;57192;41.976;2.828;2022-07-05T11:53:28;100847.50;;;35.12;26.55
64238;BME280;57192;41.976;2.828;2022-07-05T11:55:58;100849.88;;;35.02;26.46
64238;BME280;57192;41.976;2.828;2022-07-05T11:58:32;100840.13;;;34.92;26.89
64238;BME280;57192;41.976;2.828;2022-07-05T12:00:58;100846.06;;;34.96;26.66
64238;BME280;57192;41.976;2.828;2022-07-05T12:03:24;100841.41;;;35.03;26.72
64238;BME280;57192;41.976;2.828;2022-07-05T12:05:50;100846.69;;;35.05;26.98
64238;BME280;57192;41.976;2.828;2022-07-05T12:08:27;100846.06;;;35.03;26.70
64238;BME280;57192;41.976;2.828;2022-07-05T12:10:52;100837.56;;;35.04;26.81
64238;BME280;57192;41.976;2.828;2022-07-05T12:13:44;100838.78;;;35.15;26.58
64238;BME280;57192;41.976;2.828;2022-07-05T12:16:13;100830.38;;;34.83;26.88
64238;BME280;57192;41.976;2.828;2022-07-05T12:18:55;100829.50;;;34.96;27.10
64238;BME280;57192;41.976;2.828;2022-07-05T12:21:21;100832.63;;;35.13;26.13
64238;BME280;57192;41.976;2.828;2022-07-05T12:23:51;100826.50;;;35.04;26.92
64238;BME280;57192;41.976;2.828;2022-07-05T12:26:18;100827.34;;;35.11;26.60
64238;BME280;57192;41.976;2.828;2022-07-05T12:28:44;100833.88;;;35.17;26.46
64238;BME280;57192;41.976;2.828;2022-07-05T12:31:21;100838.31;;;35.18;26.74
64238;BME280;57192;41.976;2.828;2022-07-05T12:33:48;100835.78;;;35.23;26.89
64238;BME280;57192;41.976;2.828;2022-07-05T12:36:20;100833.69;;;35.19;27.17
64238;BME280;57192;41.976;2.828;2022-07-05T12:38:58;100832.81;;;35.18;27.59
64238;BME280;57192;41.976;2.828;2022-07-05T12:41:23;100837.31;;;35.12;27.79
64238;BME280;57192;41.976;2.828;2022-07-05T12:43:53;100826.44;;;35.17;27.84
64238;BME280;57192;41.976;2.828;2022-07-05T12:46:19;100833.53;;;35.45;27.85
64238;BME280;57192;41.976;2.828;2022-07-05T12:48:51;100832.25;;;35.41;27.71
64238;BME280;57192;41.976;2.828;2022-07-05T12:51:31;100837.63;;;35.29;27.11
64238;BME280;57192;41.976;2.828;2022-07-05T12:53:57;100844.59;;;35.38;28.00
64238;BME280;57192;41.976;2.828;2022-07-05T12:56:49;100835.47;;;35.38;28.26
64238;BME280;57192;41.976;2.828;2022-07-05T12:59:33;100843.69;;;35.45;27.98
64238;BME280;57192;41.976;2.828;2022-07-05T13:01:59;100833.34;;;35.33;28.13
64238;BME280;57192;41.976;2.828;2022-07-05T13:04:25;100831.09;;;35.24;28.17
64238;BME280;57192;41.976;2.828;2022-07-05T13:06:51;100844.19;;;35.35;28.10
64238;BME280;57192;41.976;2.828;2022-07-05T13:12:19;100843.84;;;35.18;28.43
64238;BME280;57192;41.976;2.828;2022-07-05T13:14:58;100854.47;;;35.21;28.02